createdAt,value
2022-10-01T00:02:02.352Z,7.39
2022-10-01T00:04:28.741Z,7.33
2022-10-01T00:06:55.153Z,7.33
2022-10-01T00:09:21.448Z,7.35
2022-10-01T00:11:47.718Z,7.29
2022-10-01T00:14:14.019Z,7.25
2022-10-01T00:16:40.347Z,7.28
2022-10-01T00:19:06.676Z,7.24
2022-10-01T00:21:33.296Z,7.16
2022-10-01T00:24:04.672Z,7.22
2022-10-01T00:26:32.500Z,7.22
2022-10-01T00:29:00.265Z,7.23
2022-10-01T00:31:27.136Z,7.24
2022-10-01T00:33:53.993Z,7.21
2022-10-01T00:36:20.789Z,7.21
2022-10-01T00:38:48.241Z,7.17
2022-10-01T00:41:15.557Z,7.18
2022-10-01T00:43:46.744Z,7.15
2022-10-01T00:46:21.686Z,7.09
2022-10-01T00:48:58.118Z,7.10
2022-10-01T00:51:29.767Z,7.09
2022-10-01T00:53:59.561Z,7.06
2022-10-01T00:56:26.225Z,7.05
2022-10-01T00:58:55.935Z,7.02
2022-10-01T01:01:24.257Z,7.06
2022-10-01T01:03:50.969Z,7.02
2022-10-01T01:06:17.296Z,7.09
2022-10-01T01:08:43.682Z,7.04
2022-10-01T01:11:23.075Z,7.02
2022-10-01T01:13:52.863Z,7.01
2022-10-01T01:16:23.399Z,7.04
2022-10-01T01:18:59.133Z,6.99
2022-10-01T01:21:30.049Z,6.92
2022-10-01T01:23:59.415Z,6.92
2022-10-01T01:26:29.465Z,6.91
2022-10-01T01:28:59.558Z,6.93
2022-10-01T01:31:36.379Z,6.93
2022-10-01T01:34:05.210Z,6.92
2022-10-01T01:36:35.611Z,6.90
2022-10-01T01:39:04.098Z,6.84
2022-10-01T01:41:32.794Z,6.81
2022-10-01T01:44:01.088Z,6.83
2022-10-01T01:46:31.978Z,6.81
2022-10-01T01:48:58.986Z,6.82
2022-10-01T01:51:54.589Z,6.78
2022-10-01T01:54:20.979Z,6.73
2022-10-01T01:56:49.677Z,6.71
2022-10-01T01:59:18.597Z,6.66
2022-10-01T02:01:45.849Z,6.66
2022-10-01T02:04:16.061Z,6.65
2022-10-01T02:06:42.776Z,6.69
2022-10-01T02:09:15.041Z,6.69
2022-10-01T02:11:47.089Z,6.67
2022-10-01T02:14:32.776Z,6.59
2022-10-01T02:17:08.126Z,6.62
2022-10-01T02:19:45.205Z,6.59
2022-10-01T02:22:12.907Z,6.57
2022-10-01T02:24:56.930Z,6.58
2022-10-01T02:27:30.733Z,6.59
2022-10-01T02:29:58.446Z,6.56
2022-10-01T02:32:26.419Z,6.63
2022-10-01T02:34:53.839Z,6.68
2022-10-01T02:37:21.986Z,6.68
2022-10-01T02:39:49.983Z,6.62
2022-10-01T02:42:17.757Z,6.67
2022-10-01T02:44:45.210Z,6.71
2022-10-01T02:47:34.173Z,6.66
2022-10-01T02:50:01.484Z,6.67
2022-10-01T02:52:34.932Z,6.67
2022-10-01T02:55:07.728Z,6.69
2022-10-01T02:57:34.194Z,6.71
2022-10-01T03:00:01.726Z,6.67
2022-10-01T03:02:28.938Z,6.73
2022-10-01T03:04:57.232Z,6.71
2022-10-01T03:07:24.162Z,6.71
2022-10-01T03:09:51.096Z,6.70
2022-10-01T03:12:18.207Z,6.74
2022-10-01T03:14:45.447Z,6.73
2022-10-01T03:17:12.434Z,6.72
2022-10-01T03:19:38.803Z,6.77
2022-10-01T03:22:05.260Z,6.75
2022-10-01T03:24:31.543Z,6.74
2022-10-01T03:26:58.157Z,6.75
2022-10-01T03:29:24.961Z,6.75
2022-10-01T03:31:51.480Z,6.75
2022-10-01T03:34:17.930Z,6.81
2022-10-01T03:36:44.381Z,6.88
2022-10-01T03:39:10.736Z,7.09
2022-10-01T03:41:37.191Z,7.13
2022-10-01T03:44:03.827Z,7.16
2022-10-01T03:46:30.549Z,7.34
2022-10-01T03:48:57.676Z,7.27
2022-10-01T03:51:24.121Z,7.23
2022-10-01T03:53:50.518Z,7.31
2022-10-01T03:56:17.003Z,7.29
2022-10-01T03:58:43.278Z,7.40
2022-10-01T04:01:09.674Z,7.39
2022-10-01T04:03:36.508Z,7.41
2022-10-01T04:06:02.985Z,7.41
2022-10-01T04:08:29.371Z,7.35
2022-10-01T04:10:56.086Z,7.34
2022-10-01T04:13:22.366Z,7.27
2022-10-01T04:15:48.896Z,7.24
2022-10-01T04:18:16.514Z,7.35
2022-10-01T04:20:42.824Z,7.36
2022-10-01T04:23:09.132Z,7.73
2022-10-01T04:25:35.698Z,7.88
2022-10-01T04:28:03.862Z,7.90
2022-10-01T04:30:32.157Z,7.96
2022-10-01T04:32:58.563Z,8.07
2022-10-01T04:35:25.466Z,8.25
2022-10-01T04:38:03.378Z,8.32
2022-10-01T04:40:30.408Z,8.46
2022-10-01T04:42:56.912Z,8.39
2022-10-01T04:45:23.273Z,8.47
2022-10-01T04:47:50.267Z,8.41
2022-10-01T04:50:17.680Z,8.42
2022-10-01T04:52:44.097Z,8.43
2022-10-01T04:55:10.968Z,8.35
2022-10-01T04:57:39.088Z,8.33
2022-10-01T05:00:09.685Z,8.43
2022-10-01T05:02:36.274Z,8.58
2022-10-01T05:05:04.458Z,8.49
2022-10-01T05:07:31.601Z,8.49
2022-10-01T05:09:58.156Z,8.44
2022-10-01T05:12:25.424Z,8.47
2022-10-01T05:14:52.499Z,8.57
2022-10-01T05:17:19.488Z,8.65
2022-10-01T05:19:46.456Z,8.63
2022-10-01T05:22:12.915Z,8.68
2022-10-01T05:24:40.056Z,8.69
2022-10-01T05:27:12.045Z,8.59
2022-10-01T05:29:38.409Z,8.73
2022-10-01T05:32:04.786Z,8.61
2022-10-01T05:34:31.199Z,8.81
2022-10-01T05:36:57.514Z,8.84
2022-10-01T05:39:23.914Z,8.94
2022-10-01T05:41:50.809Z,8.85
2022-10-01T05:44:17.124Z,8.84
2022-10-01T05:46:43.702Z,8.88
2022-10-01T05:49:10.597Z,9.18
2022-10-01T05:51:37.249Z,9.21
2022-10-01T05:54:04.367Z,9.35
2022-10-01T05:56:30.853Z,9.36
2022-10-01T05:58:57.178Z,9.20
2022-10-01T06:01:23.668Z,9.12
2022-10-01T06:03:52.879Z,9.22
2022-10-01T06:06:26.270Z,9.28
2022-10-01T06:08:52.676Z,9.22
2022-10-01T06:11:19.442Z,9.25
2022-10-01T06:13:46.853Z,9.22
2022-10-01T06:16:13.930Z,9.18
2022-10-01T06:18:40.569Z,9.25
2022-10-01T06:21:07.339Z,9.15
2022-10-01T06:23:33.798Z,9.14
2022-10-01T06:26:01.168Z,9.28
2022-10-01T06:28:27.546Z,9.28
2022-10-01T06:30:54.116Z,9.39
2022-10-01T06:33:20.672Z,9.32
2022-10-01T06:35:50.873Z,9.36
2022-10-01T06:38:18.160Z,9.41
2022-10-01T06:40:44.730Z,9.52
2022-10-01T06:43:11.063Z,9.55
2022-10-01T06:45:38.901Z,9.48
2022-10-01T06:48:05.252Z,9.52
2022-10-01T06:50:32.274Z,9.46
2022-10-01T06:52:59.438Z,9.51
2022-10-01T06:55:27.844Z,9.70
2022-10-01T06:57:58.345Z,9.74
2022-10-01T07:00:25.332Z,9.90
2022-10-01T07:02:51.833Z,9.98
2022-10-01T07:05:18.529Z,9.91
2022-10-01T07:07:44.957Z,10.03
2022-10-01T07:10:12.048Z,10.07
2022-10-01T07:12:38.579Z,10.02
2022-10-01T07:15:05.804Z,10.08
2022-10-01T07:17:32.368Z,10.02
2022-10-01T07:19:58.817Z,10.10
2022-10-01T07:22:25.175Z,10.23
2022-10-01T07:24:51.856Z,10.25
2022-10-01T07:27:18.764Z,10.27
2022-10-01T07:29:45.594Z,10.32
2022-10-01T07:32:11.864Z,10.19
2022-10-01T07:34:40.367Z,10.26
2022-10-01T07:37:07.524Z,10.27
2022-10-01T07:39:34.050Z,10.25
2022-10-01T07:42:00.727Z,10.26
2022-10-01T07:44:28.901Z,10.22
2022-10-01T07:46:57.999Z,10.29
2022-10-01T07:49:27.442Z,10.27
2022-10-01T07:51:54.956Z,10.32
2022-10-01T07:54:22.232Z,10.48
2022-10-01T07:56:55.738Z,10.49
2022-10-01T07:59:22.577Z,10.40
2022-10-01T08:01:52.023Z,10.41
2022-10-01T08:04:37.759Z,10.47
2022-10-01T08:07:04.722Z,10.57
2022-10-01T08:09:31.127Z,10.50
2022-10-01T08:11:57.560Z,10.56
2022-10-01T08:14:24.307Z,10.50
2022-10-01T08:16:50.794Z,10.71
2022-10-01T08:19:17.258Z,10.76
2022-10-01T08:21:43.593Z,10.88
2022-10-01T08:24:10.027Z,10.99
2022-10-01T08:26:36.380Z,11.04
2022-10-01T08:29:03.285Z,11.08
2022-10-01T08:31:29.626Z,11.10
2022-10-01T08:33:57.594Z,11.15
2022-10-01T08:36:24.055Z,11.18
2022-10-01T08:38:50.570Z,11.13
2022-10-01T08:41:21.249Z,11.17
2022-10-01T08:43:50.192Z,11.10
2022-10-01T08:46:18.437Z,11.21
2022-10-01T08:48:57.405Z,11.29
2022-10-01T08:51:39.397Z,11.39
2022-10-01T08:54:29.274Z,11.37
2022-10-01T08:56:57.556Z,11.35
2022-10-01T08:59:27.308Z,11.43
2022-10-01T09:01:55.134Z,11.38
2022-10-01T09:04:22.049Z,11.36
2022-10-01T09:06:52.021Z,11.30
2022-10-01T09:09:24.386Z,11.42
2022-10-01T09:11:59.923Z,11.34
2022-10-01T09:14:32.799Z,11.34
2022-10-01T09:17:20.005Z,11.34
2022-10-01T09:20:10.185Z,11.39
2022-10-01T09:23:05.635Z,11.43
2022-10-01T09:25:34.246Z,11.53
2022-10-01T09:28:10.167Z,11.67
2022-10-01T09:30:37.566Z,11.65
2022-10-01T09:33:10.560Z,11.74
2022-10-01T09:35:56.780Z,11.82
2022-10-01T09:38:34.457Z,11.87
2022-10-01T09:41:00.822Z,12.05
2022-10-01T09:43:31.850Z,12.03
2022-10-01T09:45:58.355Z,11.86
2022-10-01T09:48:46.169Z,11.90
2022-10-01T09:51:35.761Z,11.85
2022-10-01T09:54:14.393Z,11.69
2022-10-01T09:56:56.658Z,11.67
2022-10-01T09:59:31.459Z,11.62
2022-10-01T10:01:59.292Z,11.64
2022-10-01T10:04:25.966Z,11.63
2022-10-01T10:06:59.594Z,11.54
2022-10-01T10:09:28.985Z,11.41
2022-10-01T10:11:56.879Z,11.55
2022-10-01T10:14:34.638Z,11.43
2022-10-01T10:17:11.277Z,11.42
2022-10-01T10:19:38.083Z,11.34
2022-10-01T10:22:12.583Z,11.26
2022-10-01T10:24:39.042Z,11.32
2022-10-01T10:27:20.197Z,11.14
2022-10-01T10:29:46.844Z,11.15
2022-10-01T10:32:23.916Z,11.15
2022-10-01T10:34:50.771Z,11.21
2022-10-01T10:37:19.052Z,11.15
2022-10-01T10:39:47.578Z,11.11
2022-10-01T10:42:15.687Z,11.18
2022-10-01T10:44:43.437Z,11.12
2022-10-01T10:47:11.782Z,11.22
2022-10-01T10:49:41.499Z,11.23
2022-10-01T10:52:18.101Z,11.17
2022-10-01T10:54:47.055Z,11.31
2022-10-01T10:57:13.394Z,11.25
2022-10-01T10:59:39.741Z,11.24
2022-10-01T11:02:14.109Z,11.12
2022-10-01T11:04:42.322Z,11.17
2022-10-01T11:07:09.562Z,10.96
2022-10-01T11:09:54.481Z,11.04
2022-10-01T11:12:28.975Z,11.05
2022-10-01T11:15:14.219Z,10.99
2022-10-01T11:17:49.569Z,10.89
2022-10-01T11:20:32.306Z,10.93
2022-10-01T11:23:04.878Z,10.93
2022-10-01T11:25:41.380Z,10.85
2022-10-01T11:28:10.477Z,10.88
2022-10-01T11:30:42.142Z,10.87
2022-10-01T11:33:11.415Z,10.86
2022-10-01T11:35:47.759Z,10.79
2022-10-01T11:38:26.183Z,10.75
2022-10-01T11:41:11.779Z,10.75
2022-10-01T11:43:58.312Z,10.68
2022-10-01T11:46:34.365Z,10.71
2022-10-01T11:49:03.750Z,10.80
2022-10-01T11:51:34.366Z,10.68
2022-10-01T11:54:04.432Z,10.66
2022-10-01T11:56:51.734Z,10.61
2022-10-01T11:59:24.754Z,10.63
2022-10-01T12:02:03.068Z,10.56
2022-10-01T12:04:38.570Z,10.62
2022-10-01T12:07:38.197Z,10.67
2022-10-01T12:10:07.355Z,10.62
2022-10-01T12:12:37.712Z,10.49
2022-10-01T12:15:14.133Z,10.58
2022-10-01T12:17:49.099Z,10.53
2022-10-01T12:20:34.233Z,10.52
2022-10-01T12:23:02.405Z,10.49
2022-10-01T12:25:34.198Z,10.47
2022-10-01T12:28:10.765Z,10.40
2022-10-01T12:30:42.324Z,10.52
2022-10-01T12:33:08.634Z,10.45
2022-10-01T12:35:53.891Z,10.34
2022-10-01T12:38:39.358Z,10.37
2022-10-01T12:41:38.731Z,10.29
2022-10-01T12:44:40.340Z,10.27
2022-10-01T12:47:16.750Z,10.23
2022-10-01T12:49:49.943Z,10.20
2022-10-01T12:52:18.961Z,10.26
2022-10-01T12:54:55.445Z,10.21
2022-10-01T12:57:29.094Z,10.33
2022-10-01T12:59:59.219Z,10.36
2022-10-01T13:02:31.843Z,10.33
2022-10-01T13:05:27.720Z,10.22
2022-10-01T13:07:56.716Z,10.28
2022-10-01T13:10:29.686Z,10.19
2022-10-01T13:13:01.102Z,10.27
2022-10-01T13:15:32.695Z,10.26
2022-10-01T13:18:13.832Z,10.20
2022-10-01T13:20:58.869Z,10.19
2022-10-01T13:23:31.320Z,10.29
2022-10-01T13:26:00.426Z,10.28
2022-10-01T13:28:40.490Z,10.32
2022-10-01T13:31:19.297Z,10.32
2022-10-01T13:33:55.928Z,10.29
2022-10-01T13:36:29.116Z,10.21
2022-10-01T13:38:55.413Z,10.23
2022-10-01T13:41:33.364Z,10.14
2022-10-01T13:44:09.003Z,10.16
2022-10-01T13:46:37.094Z,10.27
2022-10-01T13:49:07.325Z,10.27
2022-10-01T13:51:35.011Z,10.28
2022-10-01T13:54:02.346Z,10.23
2022-10-01T13:56:29.721Z,10.25
2022-10-01T13:58:56.025Z,10.26
2022-10-01T14:01:32.924Z,10.25
2022-10-01T14:04:05.099Z,10.28
2022-10-01T14:06:34.579Z,10.23
2022-10-01T14:09:15.367Z,10.20
2022-10-01T14:12:05.505Z,10.20
2022-10-01T14:14:53.345Z,10.14
2022-10-01T14:17:22.619Z,10.10
2022-10-01T14:19:52.747Z,10.15
2022-10-01T14:22:25.062Z,10.16
2022-10-01T14:25:09.794Z,10.12
2022-10-01T14:27:45.631Z,10.07
2022-10-01T14:30:23.293Z,10.14
2022-10-01T14:33:02.663Z,10.15
2022-10-01T14:35:37.558Z,10.18
2022-10-01T14:38:10.290Z,10.25
2022-10-01T14:40:38.708Z,10.20
2022-10-01T14:43:23.197Z,10.21
2022-10-01T14:45:52.571Z,10.29
2022-10-01T14:48:18.901Z,10.30
2022-10-01T14:50:50.273Z,10.24
2022-10-01T14:53:17.749Z,10.30
2022-10-01T14:55:44.247Z,10.32
2022-10-01T14:58:17.755Z,10.33
2022-10-01T15:00:48.924Z,10.25
2022-10-01T15:03:15.753Z,10.39
2022-10-01T15:05:43.002Z,10.37
2022-10-01T15:08:11.710Z,10.38
2022-10-01T15:10:40.074Z,10.34
2022-10-01T15:13:06.459Z,10.49
2022-10-01T15:15:42.263Z,10.40
2022-10-01T15:18:11.534Z,10.52
2022-10-01T15:20:38.239Z,10.57
2022-10-01T15:23:05.566Z,10.39
2022-10-01T15:25:32.109Z,10.41
2022-10-01T15:27:58.441Z,10.31
2022-10-01T15:30:25.878Z,10.36
2022-10-01T15:32:52.429Z,10.41
2022-10-01T15:35:20.057Z,10.30
2022-10-01T15:37:50.219Z,10.31
2022-10-01T15:40:25.684Z,10.32
2022-10-01T15:43:12.242Z,10.25
2022-10-01T15:45:38.703Z,10.25
2022-10-01T15:48:05.154Z,10.28
2022-10-01T15:50:34.441Z,10.33
2022-10-01T15:53:15.006Z,10.33
2022-10-01T15:55:42.555Z,10.37
2022-10-01T15:58:17.680Z,10.51
2022-10-01T16:00:57.724Z,10.63
2022-10-01T16:03:34.589Z,10.58
2022-10-01T16:06:02.129Z,10.62
2022-10-01T16:08:36.364Z,10.71
2022-10-01T16:11:18.352Z,10.80
2022-10-01T16:13:49.044Z,10.79
2022-10-01T16:16:19.434Z,10.81
2022-10-01T16:18:52.311Z,10.82
2022-10-01T16:21:19.268Z,10.86
2022-10-01T16:23:49.813Z,10.93
2022-10-01T16:26:42.431Z,11.00
2022-10-01T16:29:14.867Z,10.95
2022-10-01T16:31:43.342Z,10.96
2022-10-01T16:34:13.733Z,10.81
2022-10-01T16:36:40.255Z,10.78
2022-10-01T16:39:06.657Z,10.78
2022-10-01T16:41:36.411Z,10.78
2022-10-01T16:44:03.588Z,10.70
2022-10-01T16:46:29.997Z,10.69
2022-10-01T16:48:58.050Z,10.73
2022-10-01T16:51:24.366Z,10.64
2022-10-01T16:53:51.051Z,10.62
2022-10-01T16:56:17.366Z,10.64
2022-10-01T16:58:44.245Z,10.71
2022-10-01T17:01:13.106Z,10.79
2022-10-01T17:03:39.715Z,10.76
2022-10-01T17:06:06.422Z,10.80
2022-10-01T17:08:32.717Z,10.70
2022-10-01T17:11:00.393Z,10.71
2022-10-01T17:13:27.800Z,10.66
2022-10-01T17:15:54.299Z,10.75
2022-10-01T17:18:21.064Z,10.80
2022-10-01T17:20:47.573Z,10.65
2022-10-01T17:23:15.311Z,10.71
2022-10-01T17:25:42.394Z,10.63
2022-10-01T17:28:11.665Z,10.61
2022-10-01T17:30:42.031Z,10.66
2022-10-01T17:33:09.868Z,10.68
2022-10-01T17:35:39.885Z,10.69
2022-10-01T17:38:06.232Z,10.69
2022-10-01T17:40:32.548Z,10.79
2022-10-01T17:42:58.860Z,10.77
2022-10-01T17:45:25.255Z,10.67
2022-10-01T17:47:51.770Z,10.66
2022-10-01T17:50:18.579Z,10.74
2022-10-01T17:52:47.055Z,10.76
2022-10-01T17:55:13.386Z,10.76
2022-10-01T17:57:39.684Z,10.69
2022-10-01T18:00:06.542Z,10.67
2022-10-01T18:02:48.028Z,10.69
2022-10-01T18:05:15.108Z,10.59
2022-10-01T18:07:42.371Z,10.55
2022-10-01T18:10:10.836Z,10.61
2022-10-01T18:12:37.310Z,10.63
2022-10-01T18:15:03.927Z,10.65
2022-10-01T18:17:32.217Z,10.60
2022-10-01T18:19:58.659Z,10.64
2022-10-01T18:22:25.041Z,10.70
2022-10-01T18:24:51.523Z,10.73
2022-10-01T18:27:18.023Z,10.73
2022-10-01T18:29:44.296Z,10.73
2022-10-01T18:32:18.971Z,10.76
2022-10-01T18:34:47.429Z,10.74
2022-10-01T18:37:37.577Z,10.81
2022-10-01T18:40:26.398Z,10.86
2022-10-01T18:42:57.715Z,10.85
2022-10-01T18:45:30.118Z,10.90
2022-10-01T18:48:06.669Z,10.93
2022-10-01T18:50:43.148Z,10.96
2022-10-01T18:53:24.739Z,10.89
2022-10-01T18:56:08.503Z,10.90
2022-10-01T18:58:43.216Z,10.92
2022-10-01T19:01:21.493Z,10.89
2022-10-01T19:04:06.534Z,10.91
2022-10-01T19:06:51.723Z,10.88
2022-10-01T19:09:23.800Z,10.86
2022-10-01T19:11:57.602Z,10.76
2022-10-01T19:14:38.211Z,10.79
2022-10-01T19:17:25.445Z,10.81
2022-10-01T19:19:58.094Z,10.84
2022-10-01T19:22:28.512Z,10.75
2022-10-01T19:24:54.764Z,10.77
2022-10-01T19:27:26.889Z,10.83
2022-10-01T19:29:58.001Z,10.78
2022-10-01T19:32:25.682Z,10.86
2022-10-01T19:35:07.276Z,10.83
2022-10-01T19:37:33.559Z,10.80
2022-10-01T19:40:06.812Z,10.75
2022-10-01T19:42:35.805Z,10.86
2022-10-01T19:45:02.446Z,10.89
2022-10-01T19:47:38.746Z,10.85
2022-10-01T19:50:15.795Z,10.96
2022-10-01T19:52:45.123Z,10.89
2022-10-01T19:55:14.287Z,10.82
2022-10-01T19:57:42.054Z,10.80
2022-10-01T20:00:12.802Z,10.77
2022-10-01T20:02:45.776Z,10.70
2022-10-01T20:05:15.518Z,10.73
2022-10-01T20:07:54.351Z,10.75
2022-10-01T20:10:24.104Z,10.79
2022-10-01T20:13:15.803Z,10.71
2022-10-01T20:15:58.655Z,10.77
2022-10-01T20:18:34.009Z,10.68
2022-10-01T20:21:18.581Z,10.67
2022-10-01T20:24:03.699Z,10.65
2022-10-01T20:26:33.576Z,10.74
2022-10-01T20:29:25.947Z,10.64
2022-10-01T20:31:55.059Z,10.68
2022-10-01T20:34:29.114Z,10.72
2022-10-01T20:36:56.676Z,10.71
2022-10-01T20:39:31.073Z,10.71
2022-10-01T20:41:58.053Z,10.67
2022-10-01T20:44:25.968Z,10.74
2022-10-01T20:46:54.550Z,10.63
2022-10-01T20:49:32.392Z,10.65
2022-10-01T20:52:17.777Z,10.72
2022-10-01T20:54:44.940Z,10.69
2022-10-01T20:57:14.926Z,10.70
2022-10-01T20:59:42.882Z,10.62
2022-10-01T21:02:38.737Z,10.60
2022-10-01T21:05:23.906Z,10.58
2022-10-01T21:08:00.639Z,10.53
2022-10-01T21:10:44.790Z,10.55
2022-10-01T21:13:13.875Z,10.53
2022-10-01T21:15:47.695Z,10.50
2022-10-01T21:18:36.981Z,10.47
2022-10-01T21:21:18.444Z,10.45
2022-10-01T21:23:53.435Z,10.47
2022-10-01T21:26:24.624Z,10.40
2022-10-01T21:28:56.998Z,10.37
2022-10-01T21:31:26.391Z,10.37
2022-10-01T21:33:55.525Z,10.39
2022-10-01T21:36:32.996Z,10.41
2022-10-01T21:39:02.107Z,10.40
2022-10-01T21:41:28.606Z,10.43
2022-10-01T21:44:01.003Z,10.46
2022-10-01T21:46:44.413Z,10.42
2022-10-01T21:49:17.484Z,10.45
2022-10-01T21:51:51.200Z,10.42
2022-10-01T21:54:36.180Z,10.37
2022-10-01T21:57:05.523Z,10.38
2022-10-01T21:59:35.062Z,10.43
2022-10-01T22:02:04.499Z,10.43
2022-10-01T22:04:45.896Z,10.38
2022-10-01T22:07:23.970Z,10.38
2022-10-01T22:10:01.211Z,10.34
2022-10-01T22:12:28.745Z,10.39
2022-10-01T22:14:55.682Z,10.39
2022-10-01T22:17:25.862Z,10.40
2022-10-01T22:19:53.608Z,10.39
2022-10-01T22:22:22.167Z,10.45
2022-10-01T22:24:52.672Z,10.50
2022-10-01T22:27:28.212Z,10.45
2022-10-01T22:30:00.241Z,10.47
2022-10-01T22:32:28.959Z,10.46
2022-10-01T22:34:57.862Z,10.45
2022-10-01T22:37:42.145Z,10.41
2022-10-01T22:40:21.145Z,10.46
2022-10-01T22:42:52.230Z,10.51
2022-10-01T22:45:21.042Z,10.41
2022-10-01T22:47:54.424Z,10.42
2022-10-01T22:50:29.883Z,10.40
2022-10-01T22:53:17.659Z,10.40
2022-10-01T22:55:48.178Z,10.32
2022-10-01T22:58:29.615Z,10.31
2022-10-01T23:01:01.647Z,10.29
2022-10-01T23:03:35.724Z,10.27
2022-10-01T23:06:07.416Z,10.28
2022-10-01T23:08:48.356Z,10.25
2022-10-01T23:11:23.014Z,10.23
2022-10-01T23:13:49.287Z,10.27
2022-10-01T23:16:24.667Z,10.22
2022-10-01T23:19:00.607Z,10.21
2022-10-01T23:21:29.696Z,10.17
2022-10-01T23:24:19.358Z,10.15
2022-10-01T23:26:52.063Z,10.19
2022-10-01T23:29:37.109Z,10.17
2022-10-01T23:32:13.031Z,10.22
2022-10-01T23:34:42.298Z,10.24
2022-10-01T23:37:15.000Z,10.28
2022-10-01T23:39:41.317Z,10.25
2022-10-01T23:42:16.787Z,10.27
2022-10-01T23:44:49.920Z,10.27
2022-10-01T23:47:19.215Z,10.28
2022-10-01T23:49:53.685Z,10.28
2022-10-01T23:52:30.496Z,10.29
2022-10-01T23:55:36.467Z,10.28
2022-10-01T23:58:03.994Z,10.24
